createdAt,value
2023-02-11T00:01:21.682Z,0.26
2023-02-11T00:03:50.193Z,0.42
2023-02-11T00:06:18.097Z,0.36
2023-02-11T00:08:46.356Z,0.56
2023-02-11T00:11:16.898Z,0.49
2023-02-11T00:13:45.556Z,0.42
2023-02-11T00:16:17.968Z,-0.18
2023-02-11T00:18:46.852Z,-0.59
2023-02-11T00:21:20.135Z,-1.08
2023-02-11T00:23:48.550Z,-0.41
2023-02-11T00:26:22.054Z,-0.16
2023-02-11T00:28:51.640Z,-0.12
2023-02-11T00:31:21.132Z,-0.59
2023-02-11T00:33:49.834Z,-0.48
2023-02-11T00:36:28.583Z,-0.59
2023-02-11T00:38:57.467Z,-0.25
2023-02-11T00:41:26.316Z,-0.20
2023-02-11T00:43:54.266Z,-0.27
2023-02-11T00:46:23.062Z,-0.44
2023-02-11T00:48:53.504Z,-0.58
2023-02-11T00:51:22.356Z,-0.48
2023-02-11T00:53:50.330Z,-0.43
2023-02-11T00:56:18.737Z,-0.73
2023-02-11T00:58:46.632Z,-0.64
2023-02-11T01:01:14.920Z,-0.56
2023-02-11T01:03:43.831Z,-0.55
2023-02-11T01:06:12.157Z,-0.13
2023-02-11T01:08:40.411Z,-0.32
2023-02-11T01:11:14.974Z,-0.68
2023-02-11T01:13:46.462Z,-0.86
2023-02-11T01:16:14.976Z,-1.58
2023-02-11T01:18:44.557Z,-0.30
2023-02-11T01:21:12.597Z,-0.04
2023-02-11T01:23:40.844Z,-0.64
2023-02-11T01:26:08.756Z,-1.69
2023-02-11T01:28:36.837Z,-1.35
2023-02-11T01:31:05.215Z,-1.29
2023-02-11T01:33:33.928Z,-1.26
2023-02-11T01:36:06.817Z,-1.15
2023-02-11T01:38:35.108Z,-2.17
2023-02-11T01:41:08.714Z,-1.36
2023-02-11T01:43:44.081Z,-1.30
2023-02-11T01:46:30.347Z,-1.65
2023-02-11T01:49:23.066Z,-1.60
2023-02-11T01:52:22.578Z,-2.62
2023-02-11T01:55:14.681Z,-2.11
2023-02-11T01:57:44.134Z,-2.39
2023-02-11T02:00:17.965Z,-2.09
2023-02-11T02:02:51.328Z,-2.54
2023-02-11T02:05:24.544Z,-2.33
2023-02-11T02:08:07.554Z,-2.43
2023-02-11T02:10:36.197Z,-2.88
2023-02-11T02:13:04.445Z,-2.60
2023-02-11T02:15:35.770Z,-2.53
2023-02-11T02:18:03.666Z,-2.59
2023-02-11T02:21:04.503Z,-2.90
2023-02-11T02:24:14.241Z,-3.01
2023-02-11T02:27:25.340Z,-2.74
2023-02-11T02:30:12.020Z,-2.88
2023-02-11T02:33:25.091Z,-3.11
2023-02-11T02:36:19.535Z,-3.08
2023-02-11T02:38:56.069Z,-3.05
2023-02-11T02:41:29.332Z,-3.05
2023-02-11T02:43:57.167Z,-3.25
2023-02-11T02:46:27.951Z,-3.10
2023-02-11T02:48:56.730Z,-3.17
2023-02-11T02:51:59.040Z,-4.09
2023-02-11T02:54:30.486Z,-3.25
2023-02-11T02:57:07.911Z,-3.30
2023-02-11T02:59:38.939Z,-3.31
2023-02-11T03:02:27.553Z,-3.31
2023-02-11T03:05:04.458Z,-3.36
2023-02-11T03:07:35.158Z,-3.39
2023-02-11T03:10:11.817Z,-3.39
2023-02-11T03:12:39.910Z,-3.50
2023-02-11T03:15:09.197Z,-3.46
2023-02-11T03:17:39.962Z,-4.19
2023-02-11T03:20:11.148Z,-3.74
2023-02-11T03:22:48.480Z,-3.20
2023-02-11T03:25:17.117Z,-3.31
2023-02-11T03:27:54.311Z,-4.42
2023-02-11T03:30:27.177Z,-3.76
2023-02-11T03:33:03.259Z,-3.50
2023-02-11T03:35:43.778Z,-3.68
2023-02-11T03:38:38.849Z,-3.94
2023-02-11T03:41:08.423Z,-3.87
2023-02-11T03:43:41.340Z,-3.54
2023-02-11T03:46:10.429Z,-3.57
2023-02-11T03:48:45.380Z,-3.30
2023-02-11T03:51:14.517Z,-3.24
2023-02-11T03:53:44.023Z,-2.99
2023-02-11T03:56:15.618Z,-2.84
2023-02-11T03:58:46.884Z,-2.83
2023-02-11T04:01:15.193Z,-2.93
2023-02-11T04:03:43.494Z,-3.21
2023-02-11T04:06:11.354Z,-3.51
2023-02-11T04:08:39.257Z,-3.17
2023-02-11T04:11:07.642Z,-2.88
2023-02-11T04:13:35.446Z,-2.97
2023-02-11T04:16:03.445Z,-2.72
2023-02-11T04:18:32.725Z,-3.04
2023-02-11T04:21:00.799Z,-3.00
2023-02-11T04:23:28.725Z,-2.90
2023-02-11T04:25:56.915Z,-2.52
2023-02-11T04:28:24.746Z,-2.94
2023-02-11T04:30:52.639Z,-2.64
2023-02-11T04:33:20.974Z,-2.81
2023-02-11T04:35:49.407Z,-2.72
2023-02-11T04:38:17.473Z,-2.75
2023-02-11T04:40:45.656Z,-2.76
2023-02-11T04:43:13.595Z,-2.67
2023-02-11T04:45:41.549Z,-2.96
2023-02-11T04:48:09.786Z,-3.44
2023-02-11T04:50:37.611Z,-3.37
2023-02-11T04:53:05.532Z,-3.48
2023-02-11T04:55:33.771Z,-3.28
2023-02-11T04:58:01.661Z,-3.22
2023-02-11T05:00:29.498Z,-2.83
2023-02-11T05:02:57.740Z,-2.40
2023-02-11T05:05:25.653Z,-2.46
2023-02-11T05:07:53.565Z,-2.71
2023-02-11T05:10:21.841Z,-2.87
2023-02-11T05:12:50.464Z,-2.40
2023-02-11T05:15:19.063Z,-2.24
2023-02-11T05:17:48.058Z,-2.40
2023-02-11T05:20:16.054Z,-2.40
2023-02-11T05:22:44.077Z,-2.17
2023-02-11T05:25:13.008Z,-1.97
2023-02-11T05:27:41.741Z,-1.56
2023-02-11T05:30:10.873Z,-2.01
2023-02-11T05:32:39.172Z,-1.59
2023-02-11T05:35:09.658Z,-1.60
2023-02-11T05:37:38.291Z,-1.95
2023-02-11T05:40:07.945Z,-2.12
2023-02-11T05:42:36.335Z,-1.21
2023-02-11T05:45:04.579Z,-1.46
2023-02-11T05:47:33.334Z,-1.45
2023-02-11T05:50:01.504Z,-1.49
2023-02-11T05:52:31.725Z,-2.03
2023-02-11T05:55:00.250Z,-1.87
2023-02-11T05:57:28.792Z,-2.26
2023-02-11T05:59:57.943Z,-2.15
2023-02-11T06:02:26.351Z,-2.22
2023-02-11T06:04:54.762Z,-2.07
2023-02-11T06:07:23.060Z,-2.55
2023-02-11T06:09:51.210Z,-2.54
2023-02-11T06:12:19.508Z,-2.72
2023-02-11T06:14:47.923Z,-2.63
2023-02-11T06:17:16.246Z,-2.77
2023-02-11T06:19:45.269Z,-2.68
2023-02-11T06:22:13.643Z,-3.27
2023-02-11T06:25:00.335Z,-3.13
2023-02-11T06:27:29.917Z,-2.92
2023-02-11T06:29:57.903Z,-2.52
2023-02-11T06:32:45.087Z,-2.14
2023-02-11T06:35:15.163Z,-2.19
2023-02-11T06:37:43.447Z,-2.21
2023-02-11T06:40:12.160Z,-2.41
2023-02-11T06:42:40.367Z,-2.05
2023-02-11T06:45:13.464Z,-2.17
2023-02-11T06:47:41.933Z,-1.95
2023-02-11T06:50:13.696Z,-1.55
2023-02-11T06:52:42.462Z,-0.76
2023-02-11T06:55:10.398Z,-0.20
2023-02-11T06:57:38.262Z,-0.33
2023-02-11T07:00:07.297Z,0.14
2023-02-11T07:02:35.233Z,-0.12
2023-02-11T07:05:03.298Z,0.20
2023-02-11T07:07:34.274Z,0.25
2023-02-11T07:10:06.113Z,1.01
2023-02-11T07:12:34.391Z,0.71
2023-02-11T07:15:02.852Z,0.89
2023-02-11T07:17:31.365Z,0.79
2023-02-11T07:20:01.922Z,1.30
2023-02-11T07:22:29.856Z,1.56
2023-02-11T07:24:57.753Z,0.87
2023-02-11T07:27:25.931Z,0.79
2023-02-11T07:29:53.784Z,1.75
2023-02-11T07:32:22.071Z,1.83
2023-02-11T07:34:50.374Z,2.51
2023-02-11T07:37:18.847Z,1.59
2023-02-11T07:39:46.850Z,1.80
2023-02-11T07:42:15.348Z,2.46
2023-02-11T07:44:43.472Z,2.80
2023-02-11T07:47:11.312Z,3.27
2023-02-11T07:49:39.509Z,2.23
2023-02-11T07:52:07.393Z,3.25
2023-02-11T07:54:35.418Z,2.75
2023-02-11T07:57:03.794Z,3.10
2023-02-11T07:59:31.732Z,3.26
2023-02-11T08:01:59.686Z,3.12
2023-02-11T08:04:28.077Z,3.14
2023-02-11T08:06:59.095Z,3.30
2023-02-11T08:09:27.540Z,3.41
2023-02-11T08:11:55.455Z,3.35
2023-02-11T08:14:25.357Z,3.60
2023-02-11T08:16:53.718Z,3.81
2023-02-11T08:19:21.792Z,4.34
2023-02-11T08:21:50.007Z,4.07
2023-02-11T08:24:18.294Z,4.12
2023-02-11T08:26:46.392Z,4.50
2023-02-11T08:29:16.624Z,4.67
2023-02-11T08:31:47.394Z,4.70
2023-02-11T08:34:18.623Z,4.84
2023-02-11T08:36:47.908Z,3.68
2023-02-11T08:39:20.295Z,3.73
2023-02-11T08:41:51.751Z,3.52
2023-02-11T08:44:21.258Z,4.05
2023-02-11T08:46:50.406Z,4.15
2023-02-11T08:49:18.965Z,4.23
2023-02-11T08:51:47.278Z,4.25
2023-02-11T08:54:15.758Z,4.40
2023-02-11T08:56:43.712Z,4.06
2023-02-11T08:59:14.994Z,4.20
2023-02-11T09:01:44.662Z,4.48
2023-02-11T09:04:12.809Z,4.85
2023-02-11T09:06:41.357Z,5.58
2023-02-11T09:09:12.297Z,4.67
2023-02-11T09:11:41.997Z,5.03
2023-02-11T09:14:19.804Z,5.92
2023-02-11T09:16:48.178Z,5.76
2023-02-11T09:19:16.867Z,6.86
2023-02-11T09:21:44.955Z,7.65
2023-02-11T09:24:13.045Z,8.57
2023-02-11T09:26:42.353Z,7.94
2023-02-11T09:29:10.394Z,8.52
2023-02-11T09:31:38.925Z,9.10
2023-02-11T09:34:07.391Z,9.53
2023-02-11T09:36:38.531Z,9.43
2023-02-11T09:39:09.816Z,9.73
2023-02-11T09:41:55.610Z,8.74
2023-02-11T09:44:29.356Z,9.01
2023-02-11T09:47:02.905Z,8.65
2023-02-11T09:49:47.756Z,8.53
2023-02-11T09:52:34.456Z,8.41
2023-02-11T09:55:05.350Z,8.76
2023-02-11T09:57:35.825Z,9.20
2023-02-11T10:00:20.513Z,8.91
2023-02-11T10:03:17.356Z,9.90
2023-02-11T10:06:14.974Z,9.10
2023-02-11T10:08:50.051Z,8.74
2023-02-11T10:11:32.201Z,9.06
2023-02-11T10:14:09.783Z,9.14
2023-02-11T10:16:37.740Z,8.62
2023-02-11T10:19:27.224Z,8.06
2023-02-11T10:22:25.818Z,8.57
2023-02-11T10:24:58.646Z,8.83
2023-02-11T10:27:34.753Z,8.03
2023-02-11T10:30:25.236Z,8.53
2023-02-11T10:33:03.025Z,9.54
2023-02-11T10:35:32.199Z,10.69
2023-02-11T10:38:01.347Z,10.44
2023-02-11T10:40:31.184Z,10.66
2023-02-11T10:43:03.707Z,10.23
2023-02-11T10:45:51.751Z,10.06
2023-02-11T10:48:39.597Z,9.85
2023-02-11T10:51:34.549Z,9.92
2023-02-11T10:54:08.426Z,10.31
2023-02-11T10:56:38.704Z,10.36
2023-02-11T10:59:31.243Z,10.23
2023-02-11T11:02:24.590Z,9.56
2023-02-11T11:04:57.834Z,8.72
2023-02-11T11:07:28.025Z,8.70
2023-02-11T11:10:06.956Z,8.57
2023-02-11T11:12:36.810Z,8.98
2023-02-11T11:15:11.029Z,7.90
2023-02-11T11:17:39.008Z,8.90
2023-02-11T11:20:22.721Z,9.36
2023-02-11T11:22:53.352Z,11.38
2023-02-11T11:25:27.475Z,12.55
2023-02-11T11:28:01.032Z,13.63
2023-02-11T11:30:35.106Z,13.05
2023-02-11T11:33:03.289Z,11.86
2023-02-11T11:35:35.183Z,12.76
2023-02-11T11:38:04.680Z,13.00
2023-02-11T11:40:34.760Z,13.40
2023-02-11T11:43:16.138Z,13.21
2023-02-11T11:46:01.316Z,12.26
2023-02-11T11:48:33.395Z,10.94
2023-02-11T11:51:05.785Z,11.00
2023-02-11T11:53:46.283Z,10.04
2023-02-11T11:56:22.486Z,10.24
2023-02-11T11:58:50.830Z,9.77
2023-02-11T12:01:42.679Z,9.53
2023-02-11T12:04:33.936Z,10.52
2023-02-11T12:07:26.796Z,10.21
2023-02-11T12:10:23.043Z,9.97
2023-02-11T12:13:10.264Z,9.56
2023-02-11T12:16:20.222Z,9.89
2023-02-11T12:19:02.681Z,9.79
2023-02-11T12:21:56.101Z,9.81
2023-02-11T12:24:53.995Z,9.93
2023-02-11T12:27:41.320Z,9.92
2023-02-11T12:30:18.533Z,9.41
2023-02-11T12:32:59.398Z,9.19
2023-02-11T12:38:12.749Z,9.26
2023-02-11T12:40:41.413Z,9.13
2023-02-11T12:43:25.442Z,9.50
2023-02-11T12:46:18.017Z,8.88
2023-02-11T12:49:04.601Z,9.89
2023-02-11T12:52:07.268Z,9.53
2023-02-11T12:54:56.723Z,9.90
2023-02-11T12:57:31.424Z,9.46
2023-02-11T13:00:19.448Z,10.21
2023-02-11T13:02:47.918Z,9.98
2023-02-11T13:05:40.836Z,9.81
2023-02-11T13:08:43.979Z,9.93
2023-02-11T13:11:22.189Z,9.95
2023-02-11T13:13:56.838Z,10.75
2023-02-11T13:16:48.078Z,10.55
2023-02-11T13:19:36.389Z,10.20
2023-02-11T13:22:25.281Z,9.85
2023-02-11T13:25:02.867Z,10.40
2023-02-11T13:27:44.734Z,9.58
2023-02-11T13:30:23.781Z,9.67
2023-02-11T13:32:54.941Z,9.84
2023-02-11T13:35:48.479Z,9.60
2023-02-11T13:38:24.833Z,9.70
2023-02-11T13:41:27.657Z,9.82
2023-02-11T13:44:19.524Z,9.42
2023-02-11T13:47:02.754Z,9.42
2023-02-11T13:49:42.046Z,9.28
2023-02-11T13:52:28.872Z,9.63
2023-02-11T13:55:03.371Z,9.90
2023-02-11T13:57:36.767Z,9.72
2023-02-11T14:00:39.531Z,9.75
2023-02-11T14:03:29.690Z,9.30
2023-02-11T14:06:28.658Z,8.76
2023-02-11T14:09:10.056Z,8.92
2023-02-11T14:11:43.632Z,9.42
2023-02-11T14:14:24.569Z,9.31
2023-02-11T14:17:01.860Z,9.04
2023-02-11T14:19:34.490Z,9.33
2023-02-11T14:22:16.772Z,9.15
2023-02-11T14:24:52.021Z,9.22
2023-02-11T14:27:28.765Z,8.93
2023-02-11T14:30:17.590Z,9.05
2023-02-11T14:33:27.486Z,8.95
2023-02-11T14:36:05.984Z,8.85
2023-02-11T14:38:42.978Z,8.48
2023-02-11T14:41:23.781Z,8.26
2023-02-11T14:43:58.236Z,8.48
2023-02-11T14:46:28.084Z,8.57
2023-02-11T14:48:59.932Z,8.61
2023-02-11T14:51:37.045Z,8.54
2023-02-11T14:54:25.409Z,8.31
2023-02-11T14:57:07.298Z,8.24
2023-02-11T14:59:36.065Z,8.60
2023-02-11T15:02:20.613Z,8.41
2023-02-11T15:04:48.799Z,7.74
2023-02-11T15:07:18.588Z,8.09
2023-02-11T15:09:49.344Z,7.90
2023-02-11T15:12:24.370Z,7.43
2023-02-11T15:14:57.863Z,8.26
2023-02-11T15:17:28.970Z,7.44
2023-02-11T15:20:00.530Z,8.00
2023-02-11T15:22:33.368Z,7.89
2023-02-11T15:25:13.518Z,7.51
2023-02-11T15:27:48.443Z,7.50
2023-02-11T15:30:22.739Z,7.96
2023-02-11T15:33:03.298Z,7.57
2023-02-11T15:35:38.539Z,7.44
2023-02-11T15:38:07.351Z,7.83
2023-02-11T15:40:37.499Z,7.87
2023-02-11T15:43:07.948Z,7.61
2023-02-11T15:45:39.501Z,7.54
2023-02-11T15:48:24.471Z,7.62
2023-02-11T15:50:55.417Z,7.31
2023-02-11T15:53:34.062Z,7.67
2023-02-11T15:56:10.505Z,6.80
2023-02-11T15:58:39.862Z,6.82
2023-02-11T16:01:09.803Z,6.82
2023-02-11T16:03:38.790Z,7.36
2023-02-11T16:06:18.528Z,7.42
2023-02-11T16:08:59.952Z,6.97
2023-02-11T16:11:36.922Z,6.44
2023-02-11T16:14:23.406Z,6.90
2023-02-11T16:16:54.893Z,6.89
2023-02-11T16:19:25.666Z,6.76
2023-02-11T16:21:55.771Z,6.02
2023-02-11T16:24:36.027Z,6.82
2023-02-11T16:27:07.506Z,6.06
2023-02-11T16:29:37.281Z,6.20
2023-02-11T16:32:16.301Z,6.75
2023-02-11T16:34:45.243Z,6.46
2023-02-11T16:37:13.302Z,6.91
2023-02-11T16:39:41.502Z,6.21
2023-02-11T16:42:12.072Z,6.50
2023-02-11T16:44:40.626Z,6.93
2023-02-11T16:47:17.903Z,6.67
2023-02-11T16:49:46.537Z,6.79
2023-02-11T16:52:16.335Z,6.81
2023-02-11T16:54:44.852Z,6.84
2023-02-11T16:57:18.618Z,7.03
2023-02-11T16:59:48.576Z,7.12
2023-02-11T17:02:25.256Z,7.18
2023-02-11T17:04:54.905Z,7.21
2023-02-11T17:07:23.547Z,6.80
2023-02-11T17:09:54.479Z,6.58
2023-02-11T17:12:25.687Z,7.18
2023-02-11T17:14:54.417Z,6.76
2023-02-11T17:17:24.031Z,6.56
2023-02-11T17:19:52.275Z,6.95
2023-02-11T17:22:20.851Z,7.00
2023-02-11T17:24:48.906Z,7.01
2023-02-11T17:27:17.572Z,6.94
2023-02-11T17:29:45.962Z,6.93
2023-02-11T17:32:15.661Z,6.65
2023-02-11T17:34:43.835Z,6.59
2023-02-11T17:37:12.325Z,6.45
2023-02-11T17:39:40.901Z,6.28
2023-02-11T17:42:09.036Z,6.37
2023-02-11T17:44:38.098Z,6.33
2023-02-11T17:47:08.119Z,6.49
2023-02-11T17:49:36.564Z,5.84
2023-02-11T17:52:06.188Z,6.28
2023-02-11T17:54:36.588Z,6.13
2023-02-11T17:57:05.520Z,6.25
2023-02-11T17:59:35.887Z,6.32
2023-02-11T18:02:05.091Z,6.69
2023-02-11T18:04:34.196Z,5.73
2023-02-11T18:07:02.582Z,5.75
2023-02-11T18:09:31.193Z,5.62
2023-02-11T18:12:00.111Z,5.79
2023-02-11T18:14:28.636Z,6.21
2023-02-11T18:16:57.072Z,6.49
2023-02-11T18:19:26.090Z,6.28
2023-02-11T18:21:54.645Z,6.18
2023-02-11T18:24:23.002Z,6.16
2023-02-11T18:26:51.867Z,6.29
2023-02-11T18:29:20.027Z,6.27
2023-02-11T18:31:48.227Z,6.21
2023-02-11T18:34:17.311Z,6.57
2023-02-11T18:36:45.504Z,6.71
2023-02-11T18:39:13.902Z,6.30
2023-02-11T18:41:43.822Z,5.75
2023-02-11T18:44:14.466Z,6.59
2023-02-11T18:46:43.000Z,5.97
2023-02-11T18:49:13.377Z,5.92
2023-02-11T18:51:41.734Z,5.93
2023-02-11T18:54:10.297Z,5.70
2023-02-11T18:56:38.545Z,5.88
2023-02-11T18:59:06.763Z,5.82
2023-02-11T19:01:36.315Z,5.96
2023-02-11T19:04:06.273Z,6.00
2023-02-11T19:06:37.718Z,6.04
2023-02-11T19:09:10.197Z,6.43
2023-02-11T19:11:52.499Z,6.75
2023-02-11T19:14:31.758Z,6.51
2023-02-11T19:17:05.919Z,6.22
2023-02-11T19:19:35.863Z,6.04
2023-02-11T19:22:10.001Z,6.14
2023-02-11T19:24:38.964Z,6.54
2023-02-11T19:27:07.638Z,6.03
2023-02-11T19:29:35.784Z,6.15
2023-02-11T19:32:08.826Z,6.32
2023-02-11T19:34:41.905Z,6.26
2023-02-11T19:37:13.071Z,6.11
2023-02-11T19:39:43.002Z,5.97
2023-02-11T19:42:11.873Z,6.42
2023-02-11T19:44:40.161Z,6.10
2023-02-11T19:47:10.570Z,6.15
2023-02-11T19:49:38.830Z,6.51
2023-02-11T19:52:06.920Z,5.68
2023-02-11T19:54:35.370Z,6.02
2023-02-11T19:57:04.983Z,5.80
2023-02-11T19:59:34.345Z,5.94
2023-02-11T20:02:02.828Z,6.07
2023-02-11T20:04:32.477Z,5.98
2023-02-11T20:07:00.577Z,6.24
2023-02-11T20:09:31.344Z,6.21
2023-02-11T20:11:59.926Z,6.06
2023-02-11T20:14:28.312Z,5.64
2023-02-11T20:16:56.465Z,6.00
2023-02-11T20:19:25.059Z,6.03
2023-02-11T20:21:54.145Z,6.01
2023-02-11T20:24:23.000Z,5.97
2023-02-11T20:26:56.109Z,5.96
2023-02-11T20:29:25.120Z,6.27
2023-02-11T20:31:54.087Z,6.09
2023-02-11T20:34:22.705Z,6.31
2023-02-11T20:36:54.355Z,6.34
2023-02-11T20:39:24.204Z,5.88
2023-02-11T20:41:53.514Z,5.85
2023-02-11T20:44:22.596Z,6.08
2023-02-11T20:46:52.074Z,6.11
2023-02-11T20:49:22.677Z,5.95
2023-02-11T20:51:52.736Z,5.84
2023-02-11T20:54:21.607Z,6.10
2023-02-11T20:56:53.991Z,6.00
2023-02-11T20:59:22.968Z,6.20
2023-02-11T21:01:56.351Z,6.28
2023-02-11T21:04:30.109Z,5.88
2023-02-11T21:07:00.781Z,6.10
2023-02-11T21:09:31.664Z,6.26
2023-02-11T21:12:00.363Z,6.02
2023-02-11T21:14:29.099Z,6.00
2023-02-11T21:16:57.789Z,6.10
2023-02-11T21:19:26.162Z,6.30
2023-02-11T21:21:55.602Z,6.33
2023-02-11T21:24:24.100Z,6.25
2023-02-11T21:26:52.224Z,5.93
2023-02-11T21:29:20.678Z,5.87
2023-02-11T21:31:49.054Z,6.04
2023-02-11T21:34:17.455Z,5.95
2023-02-11T21:36:46.095Z,6.03
2023-02-11T21:39:14.278Z,5.92
2023-02-11T21:41:42.378Z,5.85
2023-02-11T21:44:10.992Z,5.92
2023-02-11T21:46:40.650Z,5.96
2023-02-11T21:49:08.804Z,6.10
2023-02-11T21:51:37.374Z,5.89
2023-02-11T21:54:06.063Z,5.66
2023-02-11T21:56:35.657Z,5.93
2023-02-11T21:59:04.252Z,5.93
2023-02-11T22:01:35.470Z,5.99
2023-02-11T22:04:04.328Z,5.66
2023-02-11T22:06:34.465Z,5.65
2023-02-11T22:09:05.498Z,5.62
2023-02-11T22:11:34.296Z,5.96
2023-02-11T22:14:02.506Z,5.74
2023-02-11T22:16:31.263Z,5.88
2023-02-11T22:19:02.590Z,5.19
2023-02-11T22:21:30.961Z,5.32
2023-02-11T22:23:59.413Z,5.39
2023-02-11T22:26:28.253Z,5.28
2023-02-11T22:28:56.546Z,5.25
2023-02-11T22:31:27.690Z,4.97
2023-02-11T22:33:56.424Z,4.50
2023-02-11T22:36:27.768Z,4.85
2023-02-11T22:38:56.364Z,4.98
2023-02-11T22:41:24.976Z,4.98
2023-02-11T22:43:53.398Z,4.72
2023-02-11T22:46:21.712Z,4.94
2023-02-11T22:48:50.536Z,4.82
2023-02-11T22:51:24.265Z,4.31
2023-02-11T22:53:54.157Z,4.30
2023-02-11T22:56:23.039Z,4.64
2023-02-11T22:58:52.382Z,4.78
2023-02-11T23:01:20.943Z,5.02
2023-02-11T23:03:49.089Z,5.04
2023-02-11T23:06:17.617Z,5.10
2023-02-11T23:08:46.633Z,5.33
2023-02-11T23:11:18.026Z,5.22
2023-02-11T23:13:47.739Z,5.19
2023-02-11T23:16:18.412Z,5.43
2023-02-11T23:18:48.595Z,5.19
2023-02-11T23:21:19.575Z,5.32
2023-02-11T23:23:48.902Z,4.99
2023-02-11T23:26:18.769Z,4.87
2023-02-11T23:28:47.367Z,5.20
2023-02-11T23:31:31.254Z,5.17
2023-02-11T23:33:59.474Z,5.34
2023-02-11T23:36:28.212Z,5.49
2023-02-11T23:38:56.386Z,5.26
2023-02-11T23:41:25.246Z,5.44
2023-02-11T23:43:56.086Z,5.27
2023-02-11T23:46:25.701Z,5.08
2023-02-11T23:48:54.337Z,5.41
2023-02-11T23:51:23.346Z,5.45
2023-02-11T23:53:52.926Z,5.26
2023-02-11T23:56:26.566Z,5.49
2023-02-11T23:58:57.718Z,5.45
